Time;durP1;ratioP1;P1;durP2;ratioP2;P2;SDS_P1;SDS_P2;PMS_P1;PMS_P2;Temp;Humidity;BMP_temperature;BMP_pressure;BME280_temperature;BME280_humidity;BME280_pressure;Samples;Min_cycle;Max_cycle;Signal;HPM_P1;HPM_P2
2022/01/17 00:01:07;;;;;;;34.28;5.90;;;5.90;99.90;;;;;;4966973;28;20057;-64
2022/01/17 00:03:33;;;;;;;31.80;4.72;;;5.90;99.90;;;;;;4962442;28;20050;-64
2022/01/17 00:06:01;;;;;;;32.92;5.35;;;6.00;99.90;;;;;;4950019;28;20601;-64
2022/01/17 00:08:26;;;;;;;31.52;5.43;;;6.00;99.90;;;;;;4966161;28;20092;-64
2022/01/17 00:10:52;;;;;;;26.90;5.68;;;6.00;99.90;;;;;;4934770;28;20426;-64
2022/01/17 00:13:25;;;;;;;27.55;4.28;;;6.00;99.90;;;;;;4967834;28;20074;-64
2022/01/17 00:15:57;;;;;;;26.50;4.45;;;6.10;99.90;;;;;;4966506;28;20051;-64
2022/01/17 00:18:40;;;;;;;34.55;4.32;;;6.10;99.90;;;;;;4967615;28;20051;-64
2022/01/17 00:21:05;;;;;;;36.53;5.28;;;6.10;99.90;;;;;;4966365;28;20038;-64
2022/01/17 00:23:32;;;;;;;31.92;5.38;;;6.10;99.90;;;;;;4964850;28;20122;-64
2022/01/17 00:25:58;;;;;;;28.98;4.93;;;6.10;99.90;;;;;;4957001;28;20043;-64
2022/01/17 00:28:24;;;;;;;23.77;3.70;;;6.10;99.90;;;;;;4951791;28;20055;-64
2022/01/17 00:30:49;;;;;;;13.93;2.22;;;6.00;99.90;;;;;;4968101;28;20437;-64
2022/01/17 00:33:15;;;;;;;21.10;3.47;;;5.90;99.90;;;;;;4957194;28;20042;-64
2022/01/17 00:35:41;;;;;;;33.17;4.65;;;5.90;99.90;;;;;;4965376;28;20065;-64
2022/01/17 00:38:08;;;;;;;23.83;3.60;;;5.90;99.90;;;;;;4963854;28;20046;-64
2022/01/17 00:40:33;;;;;;;32.30;5.75;;;5.90;99.90;;;;;;4949290;28;20038;-64
2022/01/17 00:42:59;;;;;;;37.63;5.65;;;5.90;99.90;;;;;;4933314;28;20120;-64
2022/01/17 00:45:27;;;;;;;23.73;3.47;;;5.80;99.90;;;;;;4966803;28;20382;-64
2022/01/17 00:47:57;;;;;;;32.10;3.97;;;5.80;99.90;;;;;;4967230;28;20101;-64
2022/01/17 00:50:28;;;;;;;28.10;4.45;;;5.80;99.90;;;;;;4967124;28;20496;-64
2022/01/17 00:52:54;;;;;;;34.45;5.97;;;5.80;99.90;;;;;;4967490;28;20066;-64
2022/01/17 00:55:20;;;;;;;16.52;2.50;;;5.80;99.90;;;;;;4966026;28;20042;-64
2022/01/17 00:57:46;;;;;;;30.30;4.72;;;5.80;99.90;;;;;;4966659;28;20034;-64
2022/01/17 01:00:15;;;;;;;26.85;3.72;;;5.80;99.90;;;;;;4965688;28;21198;-64
2022/01/17 01:02:40;;;;;;;28.90;4.75;;;5.80;99.90;;;;;;4948196;28;20087;-64
2022/01/17 01:05:08;;;;;;;27.05;4.38;;;5.80;99.90;;;;;;4968019;28;20050;-64
2022/01/17 01:07:35;;;;;;;28.60;4.22;;;5.80;99.90;;;;;;4951547;28;20486;-64
2022/01/17 01:10:08;;;;;;;20.02;2.83;;;5.80;99.90;;;;;;4966702;28;20073;-64
2022/01/17 01:12:34;;;;;;;37.70;5.82;;;5.80;99.90;;;;;;4975288;28;20050;-64
2022/01/17 01:15:00;;;;;;;20.35;3.20;;;5.80;99.90;;;;;;4969954;28;20042;-64
2022/01/17 01:17:47;;;;;;;17.45;3.13;;;5.80;99.90;;;;;;4967735;28;20043;-64
2022/01/17 01:28:21;;;;;;;28.13;4.35;;;5.80;99.90;;;;;;4966941;28;20047;-64
2022/01/17 01:30:51;;;;;;;29.60;4.80;;;5.80;99.90;;;;;;4967030;28;20093;-64
2022/01/17 01:33:24;;;;;;;24.97;4.03;;;5.80;99.90;;;;;;4949908;28;20138;-64
2022/01/17 01:35:57;;;;;;;13.68;2.40;;;5.80;99.90;;;;;;4966855;28;20396;-64
2022/01/17 01:38:23;;;;;;;26.63;4.63;;;5.70;99.90;;;;;;4967062;28;20133;-64
2022/01/17 01:40:48;;;;;;;18.98;2.33;;;5.70;99.90;;;;;;4933583;28;20481;-64
2022/01/17 01:43:14;;;;;;;10.70;1.58;;;5.70;99.90;;;;;;4979974;28;20141;-64
2022/01/17 01:45:40;;;;;;;30.23;4.90;;;5.60;99.90;;;;;;4966872;28;20102;-64
2022/01/17 01:48:08;;;;;;;12.98;1.98;;;5.60;99.90;;;;;;4967525;28;20480;-64
2022/01/17 01:50:35;;;;;;;20.60;3.33;;;5.60;99.90;;;;;;4966658;28;20047;-64
2022/01/17 01:53:01;;;;;;;16.27;1.50;;;5.60;99.90;;;;;;4967560;28;20050;-64
2022/01/17 01:55:27;;;;;;;6.68;0.80;;;5.60;99.90;;;;;;4949200;28;20051;-64
2022/01/17 01:57:52;;;;;;;12.68;2.40;;;5.60;99.90;;;;;;4967080;28;20263;-64
2022/01/17 02:00:19;;;;;;;24.67;4.22;;;5.60;99.90;;;;;;4966815;28;20382;-64
2022/01/17 02:02:45;;;;;;;32.58;4.55;;;5.60;99.90;;;;;;4950376;28;20093;-64
2022/01/17 02:05:11;;;;;;;37.33;4.38;;;5.60;99.90;;;;;;4949406;28;20051;-64
2022/01/17 02:07:39;;;;;;;33.58;5.20;;;5.50;99.90;;;;;;4965923;28;20047;-64
2022/01/17 02:10:05;;;;;;;31.92;5.18;;;5.50;99.90;;;;;;4967151;28;20042;-64
2022/01/17 02:12:32;;;;;;;7.35;1.50;;;5.50;99.90;;;;;;4966651;28;20130;-64
2022/01/17 02:14:59;;;;;;;40.20;6.63;;;5.60;99.90;;;;;;4950463;28;20054;-64
2022/01/17 02:17:25;;;;;;;29.48;4.13;;;5.50;99.90;;;;;;4944524;28;20435;-64
2022/01/17 02:20:03;;;;;;;33.95;4.75;;;5.50;99.90;;;;;;4966329;28;20043;-64
2022/01/17 02:22:30;;;;;;;27.25;4.10;;;5.50;99.90;;;;;;4966845;28;20497;-64
2022/01/17 02:24:55;;;;;;;31.25;5.63;;;5.50;99.90;;;;;;4969107;28;20051;-64
2022/01/17 02:27:21;;;;;;;23.90;3.35;;;5.50;99.90;;;;;;4968366;28;20492;-64
2022/01/17 02:29:47;;;;;;;26.40;4.63;;;5.50;99.90;;;;;;4965878;28;20050;-64
2022/01/17 02:32:13;;;;;;;24.23;3.78;;;5.50;99.90;;;;;;4967272;28;20393;-64
2022/01/17 02:34:41;;;;;;;19.48;4.13;;;5.50;99.90;;;;;;4966939;28;20379;-64
2022/01/17 02:37:08;;;;;;;33.65;4.78;;;5.50;99.90;;;;;;4966890;28;20390;-64
2022/01/17 02:39:34;;;;;;;32.97;5.65;;;5.50;99.90;;;;;;4967285;28;20090;-64
2022/01/17 02:42:05;;;;;;;35.05;4.95;;;5.50;99.90;;;;;;4952429;28;20482;-64
2022/01/17 02:44:31;;;;;;;24.20;4.00;;;5.50;99.90;;;;;;4970501;28;20051;-64
2022/01/17 02:46:58;;;;;;;32.10;5.68;;;5.50;99.90;;;;;;4969214;28;20134;-64
2022/01/17 02:49:24;;;;;;;13.77;2.25;;;5.50;99.90;;;;;;4952479;28;20149;-64
2022/01/17 02:51:51;;;;;;;20.60;4.13;;;5.50;99.90;;;;;;4936081;28;20505;-64
2022/01/17 02:54:17;;;;;;;12.45;2.15;;;5.40;99.90;;;;;;4953264;28;20058;-64
2022/01/17 02:56:43;;;;;;;25.10;5.13;;;5.30;99.90;;;;;;4981169;28;21114;-64
2022/01/17 02:59:10;;;;;;;19.40;2.90;;;5.30;99.90;;;;;;4970131;28;20047;-64
2022/01/17 03:01:36;;;;;;;8.13;1.30;;;5.30;99.90;;;;;;4969778;28;20055;-64
2022/01/17 03:04:01;;;;;;;11.68;1.70;;;5.30;99.90;;;;;;4951800;28;20038;-64
2022/01/17 03:06:29;;;;;;;13.93;2.85;;;5.40;99.90;;;;;;4964433;28;20484;-64
2022/01/17 03:08:55;;;;;;;37.33;4.95;;;5.40;99.90;;;;;;4969536;28;20046;-64
2022/01/17 03:11:23;;;;;;;12.70;2.30;;;5.30;99.90;;;;;;4969874;28;20039;-64
2022/01/17 03:13:51;;;;;;;20.55;4.05;;;5.30;99.90;;;;;;4951945;28;20043;-64
2022/01/17 03:16:19;;;;;;;17.65;2.80;;;5.30;99.90;;;;;;4973313;28;20085;-64
2022/01/17 03:18:53;;;;;;;31.95;3.38;;;5.30;99.90;;;;;;4976734;28;20039;-64
2022/01/17 03:21:20;;;;;;;28.73;4.55;;;5.40;99.90;;;;;;4968871;28;20046;-64
2022/01/17 03:23:49;;;;;;;33.75;4.88;;;5.40;99.90;;;;;;4952362;28;20443;-64
2022/01/17 03:26:14;;;;;;;36.15;5.43;;;5.40;99.90;;;;;;4935860;28;20053;-64
2022/01/17 03:28:40;;;;;;;28.85;3.65;;;5.40;99.90;;;;;;4979409;28;20278;-64
2022/01/17 03:31:08;;;;;;;24.83;4.63;;;5.40;99.90;;;;;;4951154;28;20030;-64
2022/01/17 03:33:34;;;;;;;21.02;3.92;;;5.50;99.90;;;;;;4952397;28;20089;-64
2022/01/17 03:36:00;;;;;;;27.52;3.95;;;5.50;99.90;;;;;;4968672;28;20050;-64
2022/01/17 03:38:28;;;;;;;21.13;4.75;;;5.50;99.90;;;;;;4977222;28;20031;-64
2022/01/17 03:40:55;;;;;;;25.50;4.68;;;5.50;99.90;;;;;;4951809;28;20043;-64
2022/01/17 03:43:22;;;;;;;15.23;2.47;;;5.60;99.90;;;;;;4968665;28;20401;-64
2022/01/17 03:45:49;;;;;;;21.10;3.67;;;5.60;99.90;;;;;;4968852;28;20047;-64
2022/01/17 03:48:16;;;;;;;22.58;3.72;;;5.60;99.90;;;;;;4970102;28;20062;-64
2022/01/17 03:50:42;;;;;;;35.28;5.43;;;5.60;99.90;;;;;;4968650;28;20046;-64
2022/01/17 03:53:08;;;;;;;6.50;1.00;;;5.70;99.90;;;;;;4968835;28;20126;-64
2022/01/17 03:55:34;;;;;;;28.05;4.93;;;5.70;99.90;;;;;;4968646;28;20051;-64
2022/01/17 03:58:08;;;;;;;29.23;5.72;;;5.70;99.90;;;;;;4969774;28;20065;-65
2022/01/17 04:00:40;;;;;;;25.95;5.07;;;5.70;99.90;;;;;;4968404;28;20042;-64
2022/01/17 04:03:05;;;;;;;33.67;5.07;;;5.80;99.90;;;;;;4968643;28;20042;-64
2022/01/17 04:05:32;;;;;;;8.40;1.48;;;5.80;99.90;;;;;;4968678;28;20379;-64
2022/01/17 04:07:57;;;;;;;29.20;4.47;;;5.80;99.90;;;;;;4958377;28;20054;-64
2022/01/17 04:10:23;;;;;;;5.32;1.13;;;5.80;99.90;;;;;;4968830;28;20051;-64
2022/01/17 04:12:49;;;;;;;24.15;4.75;;;5.80;99.90;;;;;;4967627;28;20078;-64
2022/01/17 04:15:15;;;;;;;23.50;4.25;;;5.80;99.90;;;;;;4969198;28;20101;-64
2022/01/17 04:17:43;;;;;;;30.63;4.57;;;5.90;99.90;;;;;;4968158;28;20042;-64
2022/01/17 04:20:13;;;;;;;21.48;3.83;;;5.90;99.90;;;;;;4970831;28;20602;-64
2022/01/17 04:22:45;;;;;;;28.13;3.85;;;5.80;99.90;;;;;;4968209;28;20096;-64
2022/01/17 04:25:11;;;;;;;10.70;2.63;;;5.80;99.90;;;;;;4968018;28;20041;-64
2022/01/17 04:27:37;;;;;;;23.00;4.18;;;5.80;99.90;;;;;;4968094;28;20055;-64
2022/01/17 04:30:06;;;;;;;27.00;4.47;;;5.80;99.90;;;;;;4968459;28;20495;-64
2022/01/17 04:32:32;;;;;;;16.23;2.45;;;5.90;99.90;;;;;;4950660;28;20057;-64
2022/01/17 04:34:58;;;;;;;5.28;1.42;;;5.90;99.90;;;;;;4967155;28;20046;-64
2022/01/17 04:37:24;;;;;;;25.92;3.67;;;5.90;99.90;;;;;;4968394;28;20073;-64
2022/01/17 04:39:50;;;;;;;18.75;3.58;;;5.90;99.90;;;;;;4970301;28;20045;-64
2022/01/17 04:42:24;;;;;;;30.52;4.47;;;6.00;99.90;;;;;;4957124;28;20039;-64
2022/01/17 04:45:07;;;;;;;11.80;2.17;;;6.00;99.90;;;;;;4965154;28;20058;-64
2022/01/17 04:47:36;;;;;;;34.67;3.63;;;6.00;99.90;;;;;;4967656;28;20042;-64
2022/01/17 04:50:06;;;;;;;26.67;4.07;;;6.00;99.90;;;;;;4968065;28;20066;-64
2022/01/17 04:52:34;;;;;;;25.50;4.55;;;6.00;99.90;;;;;;4964819;28;20051;-64
2022/01/17 04:55:02;;;;;;;27.80;4.68;;;6.00;99.90;;;;;;4967246;28;20426;-64
2022/01/17 04:57:29;;;;;;;28.55;5.32;;;6.00;99.90;;;;;;4967763;28;20539;-64
2022/01/17 04:59:55;;;;;;;30.17;4.55;;;6.00;99.90;;;;;;4949493;28;20047;-64
2022/01/17 05:02:20;;;;;;;36.92;6.38;;;6.10;99.90;;;;;;4968087;28;20042;-64
2022/01/17 05:04:46;;;;;;;29.52;5.05;;;6.00;99.90;;;;;;4959172;28;20539;-64
2022/01/17 05:07:14;;;;;;;39.28;5.30;;;6.10;99.90;;;;;;4950157;28;20042;-64
2022/01/17 05:09:41;;;;;;;9.95;2.33;;;6.00;99.90;;;;;;4967058;28;20086;-64
2022/01/17 05:12:08;;;;;;;14.93;2.22;;;6.10;99.90;;;;;;4968409;28;20192;-65
2022/01/17 05:14:34;;;;;;;34.03;5.90;;;6.10;99.90;;;;;;4967628;28;20464;-64
2022/01/17 05:17:20;;;;;;;32.42;4.85;;;6.10;99.90;;;;;;4967071;28;20054;-64
2022/01/17 05:19:57;;;;;;;11.07;2.42;;;6.10;99.90;;;;;;4967781;28;20042;-64
2022/01/17 05:22:24;;;;;;;20.98;3.40;;;6.10;99.90;;;;;;4968163;28;20162;-64
2022/01/17 05:24:51;;;;;;;25.52;4.55;;;6.10;99.90;;;;;;4968209;28;20051;-64
2022/01/17 05:27:16;;;;;;;23.58;3.83;;;6.10;99.90;;;;;;4966798;28;20047;-64
2022/01/17 05:29:42;;;;;;;23.17;3.70;;;6.10;99.90;;;;;;4967282;28;20120;-64
2022/01/17 05:32:09;;;;;;;28.70;5.30;;;6.20;99.90;;;;;;4949839;28;20070;-64
2022/01/17 05:34:40;;;;;;;37.88;5.35;;;6.20;99.90;;;;;;4970404;28;20077;-64
2022/01/17 05:37:10;;;;;;;35.28;5.80;;;6.20;99.90;;;;;;4950021;28;20846;-64
2022/01/17 05:39:37;;;;;;;42.75;5.88;;;6.20;99.90;;;;;;4965284;28;20509;-64
2022/01/17 05:42:05;;;;;;;25.75;5.30;;;6.20;99.90;;;;;;4967223;28;20043;-64
2022/01/17 05:44:33;;;;;;;39.97;6.03;;;6.30;99.90;;;;;;4969250;28;20050;-64
2022/01/17 05:47:00;;;;;;;38.65;6.10;;;6.30;99.90;;;;;;4966844;28;20039;-64
2022/01/17 05:49:25;;;;;;;27.00;4.22;;;6.30;99.90;;;;;;4949734;28;20067;-64
2022/01/17 05:51:52;;;;;;;25.38;4.93;;;6.30;99.90;;;;;;4966915;28;20439;-64
2022/01/17 05:54:18;;;;;;;31.02;4.93;;;6.30;99.90;;;;;;4968269;28;20761;-64
2022/01/17 05:56:44;;;;;;;44.30;6.75;;;6.30;99.90;;;;;;4949258;28;20134;-64
2022/01/17 05:59:10;;;;;;;34.95;4.93;;;6.30;99.90;;;;;;4967238;28;20035;-64
2022/01/17 06:01:42;;;;;;;23.63;3.55;;;6.30;99.90;;;;;;4956696;28;20113;-64
2022/01/17 06:04:08;;;;;;;16.38;3.88;;;6.20;99.90;;;;;;4972691;28;20877;-64
2022/01/17 06:06:34;;;;;;;43.20;5.43;;;6.30;99.90;;;;;;4972969;28;20353;-64
2022/01/17 06:08:59;;;;;;;37.35;5.78;;;6.30;99.90;;;;;;4966256;28;20042;-64
2022/01/17 06:11:25;;;;;;;37.40;6.57;;;6.30;99.90;;;;;;4967353;28;20063;-64
2022/01/17 06:13:51;;;;;;;35.47;6.30;;;6.40;99.90;;;;;;4966812;28;20043;-64
2022/01/17 06:16:16;;;;;;;34.17;6.07;;;6.40;99.90;;;;;;4982712;28;20042;-64
2022/01/17 06:18:43;;;;;;;36.53;7.65;;;6.40;99.90;;;;;;4970283;28;20053;-64
2022/01/17 06:21:09;;;;;;;42.58;6.10;;;6.40;99.90;;;;;;4970372;28;20313;-64
2022/01/17 06:23:35;;;;;;;39.75;6.43;;;6.40;99.90;;;;;;4970403;28;20047;-64
2022/01/17 06:26:00;;;;;;;38.03;5.57;;;6.50;99.90;;;;;;4953902;28;20468;-64
2022/01/17 06:28:26;;;;;;;35.50;6.28;;;6.50;99.90;;;;;;4969021;28;20054;-64
2022/01/17 06:30:52;;;;;;;36.78;5.30;;;6.50;99.90;;;;;;4967877;28;20404;-64
2022/01/17 06:33:18;;;;;;;44.45;8.35;;;6.60;99.90;;;;;;4968069;28;20058;-64
2022/01/17 06:35:43;;;;;;;45.75;8.52;;;6.60;99.90;;;;;;4970558;28;20577;-64
2022/01/17 06:38:09;;;;;;;37.35;6.50;;;6.60;99.90;;;;;;4966392;28;20322;-64
2022/01/17 06:40:35;;;;;;;47.88;7.35;;;6.60;99.90;;;;;;4967886;28;20046;-64
2022/01/17 06:43:01;;;;;;;48.83;8.73;;;6.60;99.90;;;;;;4951326;28;20043;-64
2022/01/17 06:45:27;;;;;;;46.90;7.93;;;6.60;99.90;;;;;;4968571;28;20051;-64
2022/01/17 06:47:53;;;;;;;37.78;6.95;;;6.70;99.90;;;;;;4966473;28;20485;-64
2022/01/17 06:50:18;;;;;;;40.13;7.15;;;6.70;99.90;;;;;;4953146;28;20043;-64
2022/01/17 06:52:45;;;;;;;45.42;7.72;;;6.70;99.90;;;;;;4957329;28;20050;-64
2022/01/17 06:55:11;;;;;;;48.40;7.78;;;6.70;99.90;;;;;;4956856;28;20038;-64
2022/01/17 06:57:37;;;;;;;47.22;8.82;;;6.70;99.90;;;;;;4958048;28;20113;-64
2022/01/17 07:00:06;;;;;;;53.80;8.52;;;6.80;99.90;;;;;;4950354;28;20042;-64
2022/01/17 07:02:32;;;;;;;46.75;9.30;;;6.80;99.90;;;;;;4956351;28;20494;-64
2022/01/17 07:04:58;;;;;;;51.83;10.43;;;6.80;99.90;;;;;;4958724;28;20047;-64
2022/01/17 07:07:24;;;;;;;50.35;8.63;;;6.90;99.90;;;;;;4954795;28;20047;-64
2022/01/17 07:09:49;;;;;;;49.92;8.77;;;6.90;99.90;;;;;;4971215;28;20565;-64
2022/01/17 07:12:15;;;;;;;52.55;8.10;;;6.90;99.90;;;;;;4952393;28;20666;-64
2022/01/17 07:14:42;;;;;;;47.30;9.00;;;6.90;99.90;;;;;;4969708;28;20070;-64
2022/01/17 07:17:11;;;;;;;55.20;7.70;;;6.90;99.90;;;;;;4969507;28;20054;-64
2022/01/17 07:19:38;;;;;;;42.43;7.67;;;6.90;99.90;;;;;;4972578;28;20053;-64
2022/01/17 07:22:04;;;;;;;63.35;10.23;;;7.00;99.90;;;;;;4978021;28;20386;-64
2022/01/17 07:24:31;;;;;;;54.60;10.80;;;7.00;99.90;;;;;;4951411;28;20039;-64
2022/01/17 07:26:56;;;;;;;61.20;10.15;;;7.00;99.90;;;;;;4951624;28;20090;-64
2022/01/17 07:29:24;;;;;;;61.67;9.95;;;7.00;99.90;;;;;;4951620;28;20485;-64
2022/01/17 07:31:50;;;;;;;54.20;8.85;;;7.00;99.90;;;;;;4961303;28;20043;-64
2022/01/17 07:34:16;;;;;;;47.70;9.93;;;7.00;99.90;;;;;;4969003;28;20500;-64
2022/01/17 07:36:42;;;;;;;58.80;9.52;;;7.10;99.90;;;;;;4955728;28;20038;-64
2022/01/17 07:39:09;;;;;;;56.97;10.50;;;7.10;99.90;;;;;;4968992;28;20054;-64
2022/01/17 07:41:35;;;;;;;48.63;8.70;;;7.10;99.90;;;;;;4951276;28;20039;-64
2022/01/17 07:44:03;;;;;;;59.72;10.23;;;7.20;99.90;;;;;;4977202;28;20046;-64
2022/01/17 07:46:35;;;;;;;59.15;11.15;;;7.20;99.90;;;;;;4968659;28;20058;-64
2022/01/17 07:49:10;;;;;;;60.70;9.93;;;7.20;99.90;;;;;;4951645;28;20082;-64
2022/01/17 07:51:42;;;;;;;55.35;9.65;;;7.20;99.90;;;;;;4969526;28;20042;-64
2022/01/17 07:54:11;;;;;;;49.78;11.02;;;7.30;99.90;;;;;;4969818;28;20050;-64
2022/01/17 07:56:38;;;;;;;73.05;13.90;;;7.30;99.90;;;;;;4964522;28;20051;-64
2022/01/17 07:59:07;;;;;;;72.30;12.77;;;7.30;99.90;;;;;;4976655;28;20488;-64
2022/01/17 08:01:32;;;;;;;61.70;10.13;;;7.40;99.90;;;;;;4972545;28;20047;-65
2022/01/17 08:03:58;;;;;;;69.40;11.00;;;7.40;99.90;;;;;;4949223;28;20054;-64
2022/01/17 08:06:24;;;;;;;53.13;9.68;;;7.40;99.90;;;;;;4967675;28;20069;-64
2022/01/17 08:08:50;;;;;;;57.53;9.85;;;7.50;99.90;;;;;;4966668;28;20062;-64
2022/01/17 08:11:16;;;;;;;60.90;10.40;;;7.50;99.90;;;;;;4961082;28;20043;-64
2022/01/17 08:13:42;;;;;;;64.65;10.80;;;7.50;99.90;;;;;;4955314;28;20039;-64
2022/01/17 08:16:08;;;;;;;59.38;11.40;;;7.50;99.90;;;;;;4957528;28;20047;-65
2022/01/17 08:18:34;;;;;;;54.75;10.50;;;7.60;99.90;;;;;;4954398;28;20553;-64
2022/01/17 08:21:00;;;;;;;53.30;10.25;;;7.50;99.90;;;;;;4948621;28;20069;-64
2022/01/17 08:23:26;;;;;;;66.43;12.57;;;7.60;99.90;;;;;;4952670;28;20047;-64
2022/01/17 08:25:52;;;;;;;65.28;11.43;;;7.60;99.90;;;;;;4958415;28;20105;-64
2022/01/17 08:28:18;;;;;;;65.95;12.63;;;7.60;99.90;;;;;;4952826;28;20069;-65
2022/01/17 08:30:44;;;;;;;62.00;12.95;;;7.70;99.90;;;;;;4956198;28;20038;-64
2022/01/17 08:33:10;;;;;;;54.17;12.55;;;7.70;99.90;;;;;;4954545;28;20414;-64
2022/01/17 08:35:36;;;;;;;64.13;11.80;;;7.70;99.90;;;;;;4962653;28;20054;-64
2022/01/17 08:38:02;;;;;;;59.92;11.30;;;7.80;99.90;;;;;;4946449;28;20512;-64
2022/01/17 08:40:28;;;;;;;70.93;11.68;;;7.80;99.90;;;;;;4952990;28;20043;-65
2022/01/17 08:42:55;;;;;;;66.85;12.05;;;7.90;99.90;;;;;;4953598;28;20052;-64
2022/01/17 08:45:23;;;;;;;57.33;11.25;;;7.90;99.90;;;;;;4932792;28;20035;-64
2022/01/17 08:47:51;;;;;;;76.50;14.15;;;7.90;99.90;;;;;;4954881;28;20051;-64
2022/01/17 08:50:19;;;;;;;71.03;13.40;;;8.00;99.90;;;;;;4951341;28;20145;-64
2022/01/17 08:52:45;;;;;;;66.57;11.75;;;8.10;99.90;;;;;;4960096;28;20050;-64
2022/01/17 08:55:12;;;;;;;71.43;12.57;;;8.10;99.90;;;;;;4949827;28;20561;-64
2022/01/17 08:57:37;;;;;;;69.68;14.82;;;8.20;99.90;;;;;;4946796;28;20482;-64
2022/01/17 09:00:10;;;;;;;77.60;14.27;;;8.20;99.90;;;;;;4952011;28;20075;-64
2022/01/17 09:02:36;;;;;;;74.80;13.18;;;8.20;99.90;;;;;;4962728;28;20050;-64
2022/01/17 09:05:03;;;;;;;62.95;14.15;;;8.30;99.90;;;;;;4967985;28;20117;-64
2022/01/17 09:07:29;;;;;;;63.38;13.63;;;8.30;99.90;;;;;;4963352;28;20045;-65
2022/01/17 09:09:55;;;;;;;79.05;16.73;;;8.30;99.90;;;;;;4965112;28;20042;-64
2022/01/17 09:12:21;;;;;;;72.03;15.20;;;8.30;99.90;;;;;;4948810;28;20049;-64
2022/01/17 09:14:47;;;;;;;55.47;12.60;;;8.30;99.90;;;;;;4967220;28;20105;-64
2022/01/17 09:17:13;;;;;;;70.82;12.73;;;8.30;99.90;;;;;;4966826;28;20066;-64
2022/01/17 09:19:40;;;;;;;76.15;13.82;;;8.30;99.90;;;;;;4966175;28;20547;-65
2022/01/17 09:22:07;;;;;;;69.18;14.93;;;8.40;99.90;;;;;;4950550;28;20125;-64
2022/01/17 09:24:38;;;;;;;69.93;16.23;;;8.40;99.90;;;;;;4965094;28;20042;-65
2022/01/17 09:27:06;;;;;;;57.35;15.27;;;8.40;99.90;;;;;;4949745;28;20057;-64
2022/01/17 09:29:32;;;;;;;71.40;16.20;;;8.50;99.90;;;;;;4965008;28;20051;-64
2022/01/17 09:31:59;;;;;;;74.70;16.10;;;8.50;99.90;;;;;;4961472;28;20035;-64
2022/01/17 09:34:26;;;;;;;78.75;16.98;;;8.50;99.90;;;;;;4963636;28;20039;-64
2022/01/17 09:36:52;;;;;;;82.60;17.50;;;8.50;99.90;;;;;;4964606;28;20051;-64
2022/01/17 09:39:18;;;;;;;85.82;17.42;;;8.50;99.90;;;;;;4951798;28;20118;-64
2022/01/17 09:41:45;;;;;;;86.47;18.25;;;8.40;99.90;;;;;;4947721;28;20080;-66
2022/01/17 09:44:11;;;;;;;80.00;18.10;;;8.50;99.90;;;;;;4966128;28;20488;-65
2022/01/17 09:46:42;;;;;;;74.97;14.85;;;8.50;99.90;;;;;;4932273;28;20133;-64
2022/01/17 09:54:28;;;;;;;67.97;15.50;;;8.60;99.90;;;;;;4968225;28;20143;-64
2022/01/17 09:56:55;;;;;;;74.55;17.42;;;8.60;99.90;;;;;;4968715;28;20050;-64
2022/01/17 09:59:30;;;;;;;94.95;17.27;;;8.60;99.90;;;;;;4971405;28;20042;-64
2022/01/17 10:01:55;;;;;;;93.10;17.77;;;8.60;99.90;;;;;;4969238;28;20496;-64
2022/01/17 10:04:21;;;;;;;78.22;20.08;;;8.70;99.90;;;;;;4950376;28;20039;-65
2022/01/17 10:06:54;;;;;;;79.57;18.83;;;8.70;99.90;;;;;;4965431;28;20137;-65
2022/01/17 10:09:22;;;;;;;81.90;13.90;;;8.70;99.90;;;;;;4948406;28;20444;-64
2022/01/17 10:12:05;;;;;;;86.38;20.17;;;8.70;99.90;;;;;;4972603;28;20054;-64
2022/01/17 10:14:58;;;;;;;82.25;17.60;;;8.70;99.90;;;;;;4969388;28;20074;-64
2022/01/17 10:17:40;;;;;;;78.47;17.90;;;8.80;99.90;;;;;;4970270;28;20047;-64
2022/01/17 10:20:08;;;;;;;82.47;16.98;;;8.80;99.90;;;;;;4952172;28;20456;-64
2022/01/17 10:22:44;;;;;;;87.18;17.15;;;8.80;99.90;;;;;;4968712;28;20378;-65
2022/01/17 10:25:58;;;;;;;76.32;16.63;;;8.80;99.90;;;;;;4966860;28;20519;-64
2022/01/17 10:36:55;;;;;;;80.15;16.77;;;8.70;99.90;;;;;;4968724;28;20488;-65
2022/01/17 10:39:21;;;;;;;97.00;17.90;;;8.80;99.90;;;;;;4953107;28;20047;-65
2022/01/17 10:41:47;;;;;;;82.40;16.90;;;8.70;99.90;;;;;;4972128;28;20043;-64
2022/01/17 10:44:36;;;;;;;99.25;20.35;;;8.80;99.90;;;;;;4968199;28;20073;-64
2022/01/17 10:47:26;;;;;;;85.03;14.85;;;8.80;99.90;;;;;;4967610;28;20042;-64
2022/01/17 10:49:56;;;;;;;96.65;16.60;;;8.90;99.90;;;;;;4949743;28;20112;-64
2022/01/17 10:52:35;;;;;;;87.43;14.95;;;8.90;99.90;;;;;;4967350;28;20058;-64
2022/01/17 10:55:21;;;;;;;84.80;16.90;;;8.80;99.90;;;;;;4964076;28;20045;-65
2022/01/17 10:57:56;;;;;;;96.50;16.67;;;8.70;99.90;;;;;;4967536;28;20397;-64
2022/01/17 11:00:28;;;;;;;97.68;15.70;;;8.70;99.90;;;;;;4966863;28;20039;-64
2022/01/17 11:02:58;;;;;;;87.10;13.32;;;8.70;99.90;;;;;;4951536;28;20126;-64
2022/01/17 11:05:27;;;;;;;89.38;18.25;;;8.70;99.90;;;;;;4951832;28;20110;-65
2022/01/17 11:07:56;;;;;;;94.00;15.93;;;8.70;99.90;;;;;;4952508;28;20061;-64
2022/01/17 11:10:38;;;;;;;88.00;16.20;;;8.80;99.90;;;;;;4966998;28;20039;-64
2022/01/17 11:13:10;;;;;;;86.82;14.60;;;8.80;99.90;;;;;;4971737;28;20121;-64
2022/01/17 11:15:38;;;;;;;78.15;13.35;;;8.80;99.90;;;;;;4966034;28;20045;-64
2022/01/17 11:18:24;;;;;;;94.50;12.77;;;8.80;99.90;;;;;;4934328;28;20383;-64
2022/01/17 11:20:55;;;;;;;76.72;11.75;;;8.80;99.90;;;;;;4957228;28;20497;-64
2022/01/17 11:23:21;;;;;;;70.00;12.45;;;8.80;99.90;;;;;;4970889;28;20061;-64
2022/01/17 11:25:52;;;;;;;80.85;12.68;;;8.80;99.90;;;;;;4965513;28;20402;-64
2022/01/17 11:28:22;;;;;;;87.05;16.23;;;8.80;99.90;;;;;;4964661;28;20047;-64
2022/01/17 11:30:49;;;;;;;89.67;14.00;;;8.80;99.90;;;;;;4965989;28;20060;-64
2022/01/17 11:33:15;;;;;;;106.95;17.17;;;8.70;99.90;;;;;;4951462;28;20757;-64
2022/01/17 11:35:42;;;;;;;107.72;15.93;;;8.70;99.90;;;;;;4967724;28;20150;-64
2022/01/17 11:38:15;;;;;;;91.90;16.15;;;8.70;99.90;;;;;;4961352;28;20039;-65
2022/01/17 11:40:42;;;;;;;102.50;15.57;;;8.70;99.90;;;;;;4958584;28;20414;-64
2022/01/17 11:43:33;;;;;;;103.32;15.55;;;8.80;99.90;;;;;;4947909;28;20050;-65
2022/01/17 11:46:27;;;;;;;99.95;14.85;;;8.80;99.90;;;;;;4967392;28;20043;-64
2022/01/17 11:49:08;;;;;;;95.63;14.52;;;8.80;99.90;;;;;;4973208;28;20450;-64
2022/01/17 11:51:49;;;;;;;87.82;12.52;;;8.80;99.90;;;;;;4970339;28;20047;-64
2022/01/17 11:54:16;;;;;;;;;;;8.80;99.90;;;;;;4962158;28;20074;-64
2022/01/17 11:57:04;;;;;;;80.53;13.68;;;8.90;99.90;;;;;;4963489;28;19929;-64
2022/01/17 11:59:46;;;;;;;82.05;16.38;;;8.90;99.90;;;;;;4964094;28;20073;-64
2022/01/17 12:02:18;;;;;;;89.97;15.40;;;8.90;99.90;;;;;;4962651;28;20038;-64
2022/01/17 12:05:02;;;;;;;90.82;14.05;;;8.90;99.90;;;;;;4956517;28;20077;-64
2022/01/17 12:07:55;;;;;;;81.53;14.57;;;8.90;99.90;;;;;;4960029;28;20493;-64
2022/01/17 12:10:27;;;;;;;89.75;13.00;;;8.80;99.90;;;;;;4961445;28;20091;-64
2022/01/17 12:13:17;;;;;;;83.35;13.57;;;8.70;99.90;;;;;;4971289;28;20063;-64
2022/01/17 12:18:58;;;;;;;97.93;17.20;;;8.70;99.90;;;;;;4967160;28;20086;-64
2022/01/17 12:21:57;;;;;;;90.20;13.13;;;8.80;99.90;;;;;;4951130;28;20043;-64
2022/01/17 12:24:42;;;;;;;90.28;14.70;;;8.70;99.90;;;;;;4967980;28;20077;-64
2022/01/17 12:27:14;;;;;;;89.28;13.15;;;8.70;99.90;;;;;;4966919;28;20535;-64
2022/01/17 12:29:52;;;;;;;95.22;15.45;;;8.60;99.90;;;;;;4950011;28;20043;-64
2022/01/17 12:32:24;;;;;;;111.60;13.70;;;8.50;99.90;;;;;;4973221;28;20047;-64
2022/01/17 12:35:07;;;;;;;103.68;12.27;;;8.40;99.90;;;;;;4965649;28;20053;-64
2022/01/17 12:37:44;;;;;;;87.63;12.82;;;8.30;99.90;;;;;;4972700;28;20047;-64
2022/01/17 12:40:20;;;;;;;104.63;14.07;;;8.30;99.90;;;;;;4970885;28;20901;-64
2022/01/17 12:43:01;;;;;;;77.82;12.13;;;8.30;99.90;;;;;;4966295;28;20238;-64
2022/01/17 12:45:32;;;;;;;94.20;15.65;;;8.20;99.90;;;;;;4972962;28;20174;-64
2022/01/17 12:48:01;;;;;;;79.60;11.55;;;8.20;99.90;;;;;;4954330;28;20058;-64
2022/01/17 12:50:28;;;;;;;75.88;12.18;;;8.30;99.90;;;;;;4948638;28;20839;-64
2022/01/17 12:52:55;;;;;;;82.85;14.27;;;8.30;99.90;;;;;;4950167;28;20490;-65
2022/01/17 12:55:23;;;;;;;91.10;14.55;;;8.30;99.90;;;;;;4951803;28;20490;-64
2022/01/17 12:57:50;;;;;;;82.28;13.27;;;8.30;99.90;;;;;;4949896;28;20089;-65
2022/01/17 13:00:22;;;;;;;81.65;13.45;;;8.30;99.90;;;;;;4962595;28;20094;-62
2022/01/17 13:02:51;;;;;;;67.00;12.38;;;8.30;99.90;;;;;;4954888;28;20051;-63
2022/01/17 13:05:30;;;;;;;64.47;10.63;;;8.30;99.90;;;;;;4958109;28;20066;-62
2022/01/17 13:07:56;;;;;;;73.53;10.43;;;8.30;99.90;;;;;;4967418;28;20062;-62
2022/01/17 13:10:22;;;;;;;71.80;11.57;;;8.40;99.90;;;;;;4972681;28;20054;-62
2022/01/17 13:12:50;;;;;;;57.17;9.57;;;8.50;99.90;;;;;;4949510;28;20191;-62
2022/01/17 13:15:17;;;;;;;66.95;11.77;;;8.50;99.90;;;;;;4949568;28;20879;-62
2022/01/17 13:17:43;;;;;;;66.63;12.57;;;8.60;99.90;;;;;;4960162;28;20100;-62